createdAt,value
2022-09-06T00:01:24.554Z,90.30
2022-09-06T00:03:51.414Z,90.30
2022-09-06T00:06:20.185Z,90.30
2022-09-06T00:08:48.041Z,90.30
2022-09-06T00:11:16.518Z,90.50
2022-09-06T00:13:43.964Z,90.80
2022-09-06T00:16:26.304Z,90.90
2022-09-06T00:18:56.034Z,91.00
2022-09-06T00:21:30.744Z,91.10
2022-09-06T00:23:57.514Z,91.20
2022-09-06T00:26:24.692Z,91.30
2022-09-06T00:28:51.602Z,91.50
2022-09-06T00:31:24.246Z,91.60
2022-09-06T00:33:51.559Z,91.70
2022-09-06T00:36:19.691Z,91.80
2022-09-06T00:38:46.564Z,91.90
2022-09-06T00:41:15.331Z,91.90
2022-09-06T00:43:43.022Z,92.00
2022-09-06T00:46:15.335Z,92.20
2022-09-06T00:48:43.132Z,92.20
2022-09-06T00:51:13.089Z,92.20
2022-09-06T00:53:39.970Z,92.20
2022-09-06T00:56:07.345Z,92.20
2022-09-06T00:58:34.316Z,92.10
2022-09-06T01:01:01.430Z,92.10
2022-09-06T01:03:28.382Z,92.00
2022-09-06T01:06:20.209Z,91.90
2022-09-06T01:09:14.995Z,92.00
2022-09-06T01:12:07.531Z,91.90
2022-09-06T01:15:06.114Z,92.00
2022-09-06T01:17:53.667Z,92.00
2022-09-06T01:20:42.827Z,92.00
2022-09-06T01:23:24.856Z,92.10
2022-09-06T01:26:12.328Z,92.20
2022-09-06T01:28:44.968Z,92.20
2022-09-06T01:31:36.910Z,92.20
2022-09-06T01:34:03.675Z,92.10
2022-09-06T01:36:36.060Z,92.10
2022-09-06T01:39:03.285Z,92.10
2022-09-06T01:41:30.817Z,92.10
2022-09-06T01:43:57.996Z,91.90
2022-09-06T01:46:39.482Z,91.80
2022-09-06T01:49:21.743Z,91.70
2022-09-06T01:52:12.942Z,91.70
2022-09-06T01:55:22.269Z,91.60
2022-09-06T01:58:04.371Z,91.50
2022-09-06T02:00:32.731Z,91.50
2022-09-06T02:03:25.406Z,91.50
2022-09-06T02:05:56.262Z,91.30
2022-09-06T02:08:44.598Z,91.30
2022-09-06T02:11:14.481Z,91.20
2022-09-06T02:13:54.998Z,91.20
2022-09-06T02:16:25.470Z,91.10
2022-09-06T02:19:18.804Z,91.00
2022-09-06T02:21:47.257Z,90.70
2022-09-06T02:24:19.510Z,90.50
2022-09-06T02:26:46.962Z,90.40
2022-09-06T02:29:14.302Z,90.30
2022-09-06T02:31:48.865Z,90.20
2022-09-06T02:34:18.177Z,90.10
2022-09-06T02:36:45.305Z,89.90
2022-09-06T02:39:12.755Z,89.80
2022-09-06T02:41:42.419Z,89.60
2022-09-06T02:44:09.374Z,89.40
2022-09-06T02:46:36.214Z,89.30
2022-09-06T02:49:03.751Z,89.20
2022-09-06T02:51:30.981Z,89.10
2022-09-06T02:53:57.818Z,88.80
2022-09-06T02:56:25.001Z,88.80
2022-09-06T02:58:52.007Z,88.60
2022-09-06T03:01:18.915Z,88.50
2022-09-06T03:03:45.738Z,88.40
2022-09-06T03:06:12.757Z,88.40
2022-09-06T03:08:39.665Z,88.30
2022-09-06T03:11:06.647Z,88.30
2022-09-06T03:13:33.603Z,88.20
2022-09-06T03:16:00.798Z,88.10
2022-09-06T03:18:29.921Z,88.10
2022-09-06T03:20:57.593Z,88.10
2022-09-06T03:23:26.624Z,88.00
2022-09-06T03:25:53.775Z,88.00
2022-09-06T03:28:20.950Z,87.80
2022-09-06T03:30:49.595Z,87.70
2022-09-06T03:33:17.006Z,87.70
2022-09-06T03:35:52.134Z,87.60
2022-09-06T03:38:19.053Z,87.60
2022-09-06T03:40:47.032Z,87.70
2022-09-06T03:43:14.445Z,87.60
2022-09-06T03:45:45.984Z,87.70
2022-09-06T03:48:12.901Z,87.50
2022-09-06T03:50:44.714Z,87.40
2022-09-06T03:53:11.833Z,87.40
2022-09-06T03:55:39.223Z,87.30
2022-09-06T03:58:06.084Z,87.50
2022-09-06T04:00:33.665Z,87.50
2022-09-06T04:03:01.818Z,87.70
2022-09-06T04:05:28.884Z,87.70
2022-09-06T04:07:58.368Z,87.60
2022-09-06T04:10:25.167Z,87.60
2022-09-06T04:12:52.102Z,87.70
2022-09-06T04:15:18.929Z,87.90
2022-09-06T04:17:46.734Z,87.80
2022-09-06T04:20:14.633Z,87.80
2022-09-06T04:22:41.716Z,87.70
2022-09-06T04:25:09.302Z,87.70
2022-09-06T04:27:36.148Z,87.90
2022-09-06T04:30:03.701Z,87.90
2022-09-06T04:32:32.670Z,87.80
2022-09-06T04:34:59.583Z,87.90
2022-09-06T04:37:26.440Z,88.30
2022-09-06T04:39:54.257Z,88.40
2022-09-06T04:42:21.181Z,88.30
2022-09-06T04:44:47.980Z,88.40
2022-09-06T04:47:15.924Z,88.50
2022-09-06T04:49:42.780Z,88.60
2022-09-06T04:52:09.890Z,88.60
2022-09-06T04:54:36.794Z,88.50
2022-09-06T04:57:03.813Z,88.60
2022-09-06T04:59:30.630Z,88.50
2022-09-06T05:01:57.496Z,88.40
2022-09-06T05:04:24.555Z,88.40
2022-09-06T05:07:03.398Z,88.50
2022-09-06T05:09:30.529Z,88.60
2022-09-06T05:11:57.660Z,88.80
2022-09-06T05:14:24.593Z,88.80
2022-09-06T05:16:51.602Z,88.90
2022-09-06T05:19:19.255Z,89.00
2022-09-06T05:21:46.291Z,89.00
2022-09-06T05:24:13.269Z,89.10
2022-09-06T05:26:40.086Z,89.20
2022-09-06T05:29:06.892Z,89.30
2022-09-06T05:31:34.890Z,89.20
2022-09-06T05:34:01.783Z,89.10
2022-09-06T05:36:30.316Z,89.20
2022-09-06T05:38:57.860Z,89.00
2022-09-06T05:41:24.891Z,88.80
2022-09-06T05:43:51.786Z,88.50
2022-09-06T05:46:18.747Z,88.10
2022-09-06T05:48:52.255Z,88.00
2022-09-06T05:51:19.108Z,88.00
2022-09-06T05:53:46.036Z,88.10
2022-09-06T05:56:17.963Z,87.60
2022-09-06T05:58:44.899Z,87.50
2022-09-06T06:01:17.681Z,87.40
2022-09-06T06:04:18.534Z,87.50
2022-09-06T06:06:46.784Z,87.10
2022-09-06T06:09:14.346Z,87.30
2022-09-06T06:11:41.446Z,87.10
2022-09-06T06:14:08.999Z,87.30
2022-09-06T06:16:36.034Z,87.20
2022-09-06T06:19:03.142Z,87.10
2022-09-06T06:21:31.781Z,87.20
2022-09-06T06:24:03.391Z,87.30
2022-09-06T06:26:32.673Z,87.40
2022-09-06T06:29:02.077Z,87.30
2022-09-06T06:31:30.868Z,87.40
2022-09-06T06:33:58.410Z,87.60
2022-09-06T06:36:27.174Z,87.40
2022-09-06T06:38:55.452Z,87.40
2022-09-06T06:41:24.432Z,87.30
2022-09-06T06:43:55.976Z,87.40
2022-09-06T06:46:24.893Z,87.40
2022-09-06T06:48:54.928Z,87.20
2022-09-06T06:51:27.156Z,86.90
2022-09-06T06:54:04.753Z,86.90
2022-09-06T06:56:37.270Z,86.50
2022-09-06T06:59:06.985Z,86.70
2022-09-06T07:01:35.350Z,86.40
2022-09-06T07:04:02.827Z,86.40
2022-09-06T07:09:18.549Z,86.60
2022-09-06T07:11:46.224Z,86.70
2022-09-06T07:14:13.075Z,86.00
2022-09-06T07:16:39.943Z,85.90
2022-09-06T07:19:07.116Z,85.80
2022-09-06T07:21:37.214Z,86.20
2022-09-06T07:24:08.546Z,85.60
2022-09-06T07:26:37.719Z,85.30
2022-09-06T07:29:06.105Z,85.40
2022-09-06T07:34:25.805Z,84.70
2022-09-06T07:36:53.967Z,84.40
2022-09-06T07:39:20.969Z,84.90
2022-09-06T07:41:47.846Z,84.70
2022-09-06T07:44:15.433Z,84.50
2022-09-06T07:55:24.089Z,84.20
2022-09-06T07:57:50.918Z,83.30
2022-09-06T08:00:18.581Z,83.30
2022-09-06T08:02:45.398Z,83.30
2022-09-06T08:10:51.175Z,82.20
2022-09-06T08:13:17.998Z,82.40
2022-09-06T08:15:44.881Z,81.60
2022-09-06T08:18:12.083Z,82.20
2022-09-06T08:20:38.926Z,81.80
2022-09-06T08:23:11.853Z,81.60
2022-09-06T08:25:38.814Z,81.40
2022-09-06T08:28:05.681Z,81.00
2022-09-06T08:30:33.414Z,80.90
2022-09-06T08:33:00.208Z,80.60
2022-09-06T08:35:27.271Z,80.30
2022-09-06T08:37:54.142Z,80.70
2022-09-06T08:40:22.349Z,80.90
2022-09-06T08:42:51.887Z,79.80
2022-09-06T08:45:19.528Z,80.00
2022-09-06T08:47:46.343Z,80.10
2022-09-06T08:50:13.183Z,80.40
2022-09-06T08:53:18.278Z,79.90
2022-09-06T08:55:55.051Z,78.60
2022-09-06T08:58:47.008Z,79.20
2022-09-06T09:01:19.424Z,79.60
2022-09-06T09:03:46.875Z,79.80
2022-09-06T09:06:13.739Z,79.50
2022-09-06T09:08:54.052Z,78.30
2022-09-06T09:11:23.192Z,77.50
2022-09-06T09:14:12.324Z,77.50
2022-09-06T09:16:39.245Z,77.90
2022-09-06T09:19:06.662Z,77.70
2022-09-06T09:21:36.406Z,77.50
2022-09-06T09:24:09.663Z,76.80
2022-09-06T09:26:54.346Z,76.60
2022-09-06T09:29:26.841Z,76.70
2022-09-06T09:31:55.702Z,76.60
2022-09-06T09:34:36.224Z,75.00
2022-09-06T09:40:46.314Z,74.80
2022-09-06T09:43:23.465Z,73.90
2022-09-06T09:46:11.737Z,73.90
2022-09-06T09:48:39.524Z,73.70
2022-09-06T09:51:25.457Z,74.20
2022-09-06T09:54:01.250Z,72.50
2022-09-06T09:56:53.513Z,72.80
2022-09-06T09:59:32.154Z,70.90
2022-09-06T10:02:01.571Z,70.50
2022-09-06T10:07:15.089Z,72.00
2022-09-06T10:09:43.890Z,71.50
2022-09-06T10:12:20.210Z,71.50
2022-09-06T10:14:49.038Z,72.40
2022-09-06T10:17:21.410Z,72.10
2022-09-06T10:19:49.926Z,72.90
2022-09-06T10:22:26.189Z,73.00
2022-09-06T10:25:30.673Z,73.60
2022-09-06T10:28:19.015Z,73.30
2022-09-06T10:31:08.079Z,73.30
2022-09-06T10:34:17.841Z,73.70
2022-09-06T10:37:15.105Z,73.00
2022-09-06T10:40:10.138Z,72.70
2022-09-06T10:42:48.357Z,72.70
2022-09-06T10:45:42.482Z,72.50
2022-09-06T10:48:39.264Z,72.30
2022-09-06T10:51:27.927Z,71.00
2022-09-06T10:54:00.913Z,70.80
2022-09-06T10:56:52.357Z,71.40
2022-09-06T10:59:52.152Z,70.30
2022-09-06T11:05:52.542Z,67.00
2022-09-06T11:08:53.557Z,67.20
2022-09-06T11:11:53.234Z,67.60
2022-09-06T11:14:21.077Z,67.60
2022-09-06T11:17:03.314Z,67.20
2022-09-06T11:19:38.846Z,68.20
2022-09-06T11:22:11.635Z,66.90
2022-09-06T11:25:03.809Z,67.00
2022-09-06T11:27:30.550Z,66.80
2022-09-06T11:29:59.645Z,66.70
2022-09-06T11:33:31.427Z,67.20
2022-09-06T11:36:35.583Z,68.10
2022-09-06T11:39:04.615Z,67.00
2022-09-06T11:41:40.940Z,66.90
2022-09-06T11:44:12.913Z,67.00
2022-09-06T11:46:42.818Z,68.10
2022-09-06T11:49:16.048Z,67.50
2022-09-06T11:51:44.753Z,66.80
2022-09-06T11:54:23.176Z,67.30
2022-09-06T11:56:57.489Z,67.10
2022-09-06T11:59:30.357Z,67.40
2022-09-06T12:02:02.342Z,67.20
2022-09-06T12:05:09.458Z,66.30
2022-09-06T12:07:37.866Z,66.90
2022-09-06T12:10:30.731Z,66.20
2022-09-06T12:12:58.443Z,66.30
2022-09-06T12:15:52.740Z,67.40
2022-09-06T12:18:47.662Z,67.90
2022-09-06T12:21:36.364Z,66.80
2022-09-06T12:24:04.475Z,67.50
2022-09-06T12:26:54.464Z,68.60
2022-09-06T12:29:26.597Z,69.20
2022-09-06T12:32:01.677Z,69.20
2022-09-06T12:34:34.625Z,67.90
2022-09-06T12:37:07.226Z,68.00
2022-09-06T12:39:34.875Z,69.20
2022-09-06T12:42:07.253Z,68.90
2022-09-06T12:44:45.746Z,67.50
2022-09-06T12:47:29.222Z,67.90
2022-09-06T12:50:31.491Z,68.00
2022-09-06T12:53:00.721Z,68.50
2022-09-06T12:55:34.840Z,68.80
2022-09-06T12:58:07.429Z,68.90
2022-09-06T13:00:40.618Z,67.40
2022-09-06T13:03:30.723Z,67.60
2022-09-06T13:05:58.916Z,68.00
2022-09-06T13:08:38.936Z,68.20
2022-09-06T13:11:11.099Z,69.00
2022-09-06T13:13:46.988Z,69.20
2022-09-06T13:16:19.929Z,69.40
2022-09-06T13:18:46.809Z,68.20
2022-09-06T13:21:35.624Z,69.10
2022-09-06T13:24:17.972Z,69.50
2022-09-06T13:26:44.824Z,69.60
2022-09-06T13:29:17.763Z,70.70
2022-09-06T13:31:49.208Z,69.60
2022-09-06T13:34:26.635Z,68.20
2022-09-06T13:37:14.399Z,68.20
2022-09-06T13:39:44.115Z,68.20
2022-09-06T13:42:24.050Z,68.80
2022-09-06T13:44:53.743Z,68.70
2022-09-06T13:47:20.745Z,68.50
2022-09-06T13:49:51.079Z,67.60
2022-09-06T13:52:18.355Z,68.30
2022-09-06T13:54:58.633Z,68.00
2022-09-06T13:57:25.912Z,67.60
2022-09-06T13:59:53.197Z,68.20
2022-09-06T14:02:20.964Z,69.60
2022-09-06T14:04:47.948Z,68.70
2022-09-06T14:07:15.671Z,69.80
2022-09-06T14:09:44.393Z,70.00
2022-09-06T14:12:11.326Z,70.80
2022-09-06T14:14:38.276Z,71.00
2022-09-06T14:17:05.360Z,71.50
2022-09-06T14:19:33.102Z,71.00
2022-09-06T14:22:00.117Z,71.60
2022-09-06T14:24:26.948Z,71.80
2022-09-06T14:26:54.300Z,72.00
2022-09-06T14:29:21.516Z,72.50
2022-09-06T14:31:51.268Z,72.70
2022-09-06T14:34:18.415Z,73.00
2022-09-06T14:36:45.422Z,72.80
2022-09-06T14:39:12.302Z,72.10
2022-09-06T14:41:39.260Z,72.30
2022-09-06T14:44:06.125Z,72.60
2022-09-06T14:46:33.025Z,72.50
2022-09-06T14:49:09.977Z,73.10
2022-09-06T14:51:38.340Z,72.50
2022-09-06T14:54:09.296Z,72.80
2022-09-06T14:56:38.201Z,73.00
2022-09-06T14:59:05.183Z,72.70
2022-09-06T15:01:38.067Z,73.00
2022-09-06T15:04:08.224Z,73.70
2022-09-06T15:06:37.046Z,73.20
2022-09-06T15:09:05.352Z,73.30
2022-09-06T15:11:36.444Z,74.00
2022-09-06T15:14:06.270Z,74.10
2022-09-06T15:16:33.099Z,74.10
2022-09-06T15:19:00.073Z,73.80
2022-09-06T15:21:26.945Z,74.10
2022-09-06T15:23:53.884Z,74.40
2022-09-06T15:26:21.403Z,75.00
2022-09-06T15:28:48.629Z,74.70
2022-09-06T15:31:15.765Z,75.00
2022-09-06T15:33:44.846Z,75.10
2022-09-06T15:36:12.145Z,75.50
2022-09-06T15:38:50.517Z,75.80
2022-09-06T15:41:20.980Z,75.60
2022-09-06T15:43:50.162Z,75.90
2022-09-06T15:46:23.179Z,76.00
2022-09-06T15:48:51.322Z,76.30
2022-09-06T15:51:19.977Z,76.00
2022-09-06T15:53:47.773Z,76.10
2022-09-06T15:56:17.037Z,76.10
2022-09-06T15:58:45.928Z,75.90
2022-09-06T16:01:18.545Z,76.20
2022-09-06T16:03:47.422Z,76.50
2022-09-06T16:06:26.879Z,77.20
2022-09-06T16:09:04.231Z,77.90
2022-09-06T16:11:33.441Z,77.80
2022-09-06T16:14:00.318Z,78.20
2022-09-06T16:16:27.242Z,78.40
2022-09-06T16:18:57.899Z,78.20
2022-09-06T16:21:29.557Z,78.40
2022-09-06T16:24:01.883Z,79.10
2022-09-06T16:26:35.120Z,79.00
2022-09-06T16:29:02.752Z,79.80
2022-09-06T16:31:30.196Z,80.10
2022-09-06T16:33:58.013Z,80.20
2022-09-06T16:36:28.018Z,79.70
2022-09-06T16:38:58.099Z,80.00
2022-09-06T16:41:42.514Z,79.70
2022-09-06T16:44:14.524Z,80.10
2022-09-06T16:46:49.867Z,80.30
2022-09-06T16:52:40.948Z,80.30
2022-09-06T16:55:45.344Z,80.10
2022-09-06T16:58:14.220Z,80.40
2022-09-06T17:00:47.004Z,80.60
2022-09-06T17:03:14.249Z,80.80
2022-09-06T17:05:41.230Z,80.90
2022-09-06T17:08:08.631Z,80.90
2022-09-06T17:10:38.527Z,80.60
2022-09-06T17:13:08.314Z,80.70
2022-09-06T17:15:57.520Z,81.00
2022-09-06T17:18:26.851Z,81.00
2022-09-06T17:21:05.512Z,80.80
2022-09-06T17:23:58.152Z,81.10
2022-09-06T17:26:26.623Z,81.30
2022-09-06T17:28:56.132Z,81.30
2022-09-06T17:31:25.948Z,81.90
2022-09-06T17:34:22.824Z,81.70
2022-09-06T17:36:50.222Z,81.90
2022-09-06T17:39:20.887Z,81.80
2022-09-06T17:41:50.323Z,81.80
2022-09-06T17:44:19.674Z,81.90
2022-09-06T17:47:08.900Z,82.10
2022-09-06T17:49:43.077Z,82.20
2022-09-06T17:52:10.772Z,82.40
2022-09-06T17:54:39.825Z,82.80
2022-09-06T17:57:06.693Z,82.80
2022-09-06T17:59:36.439Z,82.90
2022-09-06T18:02:04.575Z,83.20
2022-09-06T18:04:31.537Z,83.40
2022-09-06T18:06:58.764Z,83.70
2022-09-06T18:09:25.592Z,83.80
2022-09-06T18:11:52.694Z,84.00
2022-09-06T18:14:23.137Z,84.20
2022-09-06T18:16:51.851Z,84.60
2022-09-06T18:19:18.887Z,84.80
2022-09-06T18:21:46.673Z,84.90
2022-09-06T18:24:16.339Z,85.20
2022-09-06T18:26:46.433Z,85.40
2022-09-06T18:29:18.912Z,85.60
2022-09-06T18:31:49.275Z,85.80
2022-09-06T18:34:19.420Z,85.90
2022-09-06T18:36:47.823Z,86.00
2022-09-06T18:39:16.338Z,86.20
2022-09-06T18:42:28.859Z,86.30
2022-09-06T18:45:10.491Z,86.50
2022-09-06T18:47:42.650Z,86.80
2022-09-06T18:50:09.869Z,87.10
2022-09-06T18:52:38.440Z,87.30
2022-09-06T18:55:05.903Z,87.30
2022-09-06T18:57:32.804Z,87.40
2022-09-06T19:00:05.681Z,87.50
2022-09-06T19:02:34.720Z,87.80
2022-09-06T19:05:02.156Z,87.90
2022-09-06T19:07:29.944Z,88.10
2022-09-06T19:09:58.354Z,88.30
2022-09-06T19:12:30.921Z,88.40
2022-09-06T19:15:02.993Z,88.40
2022-09-06T19:17:34.666Z,88.50
2022-09-06T19:20:10.773Z,88.60
2022-09-06T19:22:39.105Z,88.70
2022-09-06T19:25:13.992Z,88.70
2022-09-06T19:27:40.854Z,88.70
2022-09-06T19:30:11.511Z,89.20
2022-09-06T19:32:40.662Z,89.70
2022-09-06T19:35:15.538Z,90.00
2022-09-06T19:37:42.692Z,90.00
2022-09-06T19:40:15.018Z,89.70
2022-09-06T19:42:47.094Z,89.90
2022-09-06T19:45:16.068Z,89.70
2022-09-06T19:47:42.958Z,89.70
2022-09-06T19:50:10.115Z,89.60
2022-09-06T19:52:36.963Z,89.60
2022-09-06T19:55:04.081Z,89.60
2022-09-06T19:57:31.028Z,89.80
2022-09-06T20:00:00.517Z,89.70
2022-09-06T20:02:27.614Z,89.70
2022-09-06T20:04:54.543Z,89.70
2022-09-06T20:07:21.470Z,89.70
2022-09-06T20:09:52.323Z,89.80
2022-09-06T20:12:20.016Z,89.80
2022-09-06T20:14:46.881Z,89.90
2022-09-06T20:17:32.781Z,89.80
2022-09-06T20:20:00.604Z,89.50
2022-09-06T20:22:27.443Z,89.50
2022-09-06T20:24:54.556Z,89.50
2022-09-06T20:27:22.213Z,89.50
2022-09-06T20:29:49.127Z,89.60
2022-09-06T20:32:16.196Z,89.60
2022-09-06T20:34:43.230Z,89.50
2022-09-06T20:37:10.157Z,89.60
2022-09-06T20:39:37.110Z,89.50
2022-09-06T20:42:04.192Z,89.50
2022-09-06T20:44:31.114Z,89.70
2022-09-06T20:46:58.053Z,89.70
2022-09-06T20:49:24.931Z,89.80
2022-09-06T20:51:51.918Z,89.80
2022-09-06T20:54:18.782Z,89.90
2022-09-06T20:56:45.617Z,89.90
2022-09-06T20:59:13.696Z,89.90
2022-09-06T21:01:43.231Z,90.00
2022-09-06T21:04:11.413Z,90.30
2022-09-06T21:06:39.350Z,90.40
2022-09-06T21:09:11.716Z,90.40
2022-09-06T21:11:38.955Z,90.50
2022-09-06T21:14:07.554Z,90.60
2022-09-06T21:16:34.745Z,90.60
2022-09-06T21:19:03.923Z,90.80
2022-09-06T21:21:32.026Z,90.70
2022-09-06T21:24:03.619Z,90.60
2022-09-06T21:26:31.061Z,90.60
2022-09-06T21:28:58.311Z,90.60
2022-09-06T21:31:33.646Z,90.50
2022-09-06T21:34:06.829Z,90.60
2022-09-06T21:36:37.406Z,90.80
2022-09-06T21:39:09.581Z,90.80
2022-09-06T21:41:37.842Z,90.70
2022-09-06T21:44:06.100Z,91.10
2022-09-06T21:46:35.539Z,91.00
2022-09-06T21:49:05.353Z,90.80
2022-09-06T21:51:32.709Z,90.80
2022-09-06T21:54:03.485Z,91.00
2022-09-06T21:56:31.583Z,91.00
2022-09-06T21:58:58.577Z,91.00
2022-09-06T22:01:31.655Z,90.80
2022-09-06T22:03:59.219Z,90.70
2022-09-06T22:06:28.874Z,90.70
2022-09-06T22:08:57.472Z,90.70
2022-09-06T22:11:27.172Z,90.50
2022-09-06T22:13:54.406Z,90.40
2022-09-06T22:16:22.629Z,90.50
2022-09-06T22:18:49.983Z,90.40
2022-09-06T22:21:20.149Z,90.40
2022-09-06T22:23:51.947Z,90.60
2022-09-06T22:26:19.109Z,90.70
2022-09-06T22:28:46.147Z,90.60
2022-09-06T22:31:13.380Z,90.60
2022-09-06T22:33:40.372Z,90.60
2022-09-06T22:36:07.568Z,90.70
2022-09-06T22:38:34.907Z,90.90
2022-09-06T22:41:02.031Z,91.10
2022-09-06T22:43:28.926Z,91.10
2022-09-06T22:46:03.326Z,91.20
2022-09-06T22:48:30.242Z,91.30
2022-09-06T22:50:57.312Z,91.50
2022-09-06T22:53:24.157Z,91.90
2022-09-06T22:55:51.060Z,91.90
2022-09-06T22:58:18.021Z,92.00
2022-09-06T23:00:45.654Z,92.20
2022-09-06T23:03:12.596Z,92.30
2022-09-06T23:05:39.668Z,92.20
2022-09-06T23:08:06.556Z,92.30
2022-09-06T23:10:38.615Z,92.40
2022-09-06T23:13:05.468Z,92.40
2022-09-06T23:15:35.452Z,92.40
2022-09-06T23:18:02.401Z,92.40
2022-09-06T23:20:29.360Z,92.40
2022-09-06T23:22:57.051Z,92.40
2022-09-06T23:25:24.011Z,92.80
2022-09-06T23:27:51.335Z,92.90
2022-09-06T23:30:19.079Z,93.00
2022-09-06T23:32:45.965Z,93.20
2022-09-06T23:35:12.835Z,93.40
2022-09-06T23:37:39.710Z,93.70
2022-09-06T23:40:09.274Z,93.90
2022-09-06T23:42:36.301Z,94.10
2022-09-06T23:45:03.493Z,94.30
2022-09-06T23:47:30.663Z,94.50
2022-09-06T23:49:57.504Z,94.60
2022-09-06T23:52:24.425Z,94.70
2022-09-06T23:54:51.360Z,94.70
2022-09-06T23:57:18.199Z,94.70
2022-09-06T23:59:44.986Z,94.60
